createdAt,value
2018-02-24T00:02:18.992Z,25.25
2018-02-24T00:04:45.189Z,25.10
2018-02-24T00:07:11.380Z,26.05
2018-02-24T00:09:37.601Z,23.35
2018-02-24T00:12:03.808Z,27.50
2018-02-24T00:14:30.014Z,24.15
2018-02-24T00:16:56.231Z,25.37
2018-02-24T00:19:22.432Z,27.02
2018-02-24T00:21:48.685Z,25.62
2018-02-24T00:24:15.641Z,23.27
2018-02-24T00:26:43.062Z,27.20
2018-02-24T00:29:09.302Z,24.33
2018-02-24T00:31:35.654Z,25.30
2018-02-24T00:34:02.054Z,26.45
2018-02-24T00:36:28.281Z,24.95
2018-02-24T00:38:54.523Z,23.08
2018-02-24T00:41:21.482Z,24.20
2018-02-24T00:43:47.709Z,25.98
2018-02-24T00:46:13.939Z,29.15
2018-02-24T00:48:40.152Z,28.38
2018-02-24T00:51:06.402Z,26.83
2018-02-24T00:53:32.615Z,23.80
2018-02-24T00:55:58.841Z,30.10
2018-02-24T00:58:25.060Z,31.00
2018-02-24T01:00:51.349Z,28.98
2018-02-24T01:03:17.547Z,24.98
2018-02-24T01:05:44.499Z,21.02
2018-02-24T01:08:10.700Z,22.20
2018-02-24T01:10:38.481Z,26.70
2018-02-24T01:13:04.680Z,26.50
2018-02-24T01:15:30.911Z,26.05
2018-02-24T01:17:57.136Z,25.62
2018-02-24T01:20:24.131Z,24.02
2018-02-24T01:22:50.336Z,31.87
2018-02-24T01:25:16.588Z,35.75
2018-02-24T01:27:43.550Z,28.70
2018-02-24T01:30:09.765Z,24.27
2018-02-24T01:32:36.007Z,28.75
2018-02-24T01:35:02.228Z,25.02
2018-02-24T01:37:28.476Z,22.73
2018-02-24T01:39:54.683Z,30.58
2018-02-24T01:42:20.914Z,28.33
2018-02-24T01:44:47.140Z,32.33
2018-02-24T01:47:13.365Z,29.90
2018-02-24T01:49:40.285Z,30.30
2018-02-24T01:52:06.518Z,29.10
2018-02-24T01:54:32.709Z,35.72
2018-02-24T01:56:58.931Z,31.58
2018-02-24T01:59:25.119Z,25.90
2018-02-24T02:01:52.114Z,26.60
2018-02-24T02:04:18.330Z,33.20
2018-02-24T02:06:44.566Z,24.12
2018-02-24T02:09:10.790Z,25.75
2018-02-24T02:11:37.000Z,26.25
2018-02-24T02:14:03.229Z,24.83
2018-02-24T02:16:30.178Z,25.73
2018-02-24T02:18:56.801Z,25.52
2018-02-24T02:21:23.010Z,21.25
2018-02-24T02:23:49.205Z,25.27
2018-02-24T02:26:15.468Z,27.17
2018-02-24T02:28:42.437Z,24.60
2018-02-24T02:31:09.348Z,23.17
2018-02-24T02:33:36.291Z,23.65
2018-02-24T02:36:02.453Z,29.63
2018-02-24T02:38:28.640Z,30.35
2018-02-24T02:40:54.841Z,24.85
2018-02-24T02:43:21.050Z,24.58
2018-02-24T02:45:47.261Z,24.58
2018-02-24T02:48:13.484Z,27.45
2018-02-24T02:50:39.696Z,23.77
2018-02-24T02:53:05.910Z,28.80
2018-02-24T02:55:32.102Z,29.70
2018-02-24T02:57:58.319Z,28.30
2018-02-24T03:00:24.569Z,24.37
2018-02-24T03:02:50.769Z,27.87
2018-02-24T03:05:16.969Z,30.95
2018-02-24T03:07:43.906Z,27.62
2018-02-24T03:10:10.093Z,26.15
2018-02-24T03:12:37.157Z,27.15
2018-02-24T03:15:03.371Z,30.45
2018-02-24T03:17:29.609Z,29.98
2018-02-24T03:19:58.225Z,28.23
2018-02-24T03:22:24.459Z,25.83
2018-02-24T03:24:50.679Z,27.70
2018-02-24T03:27:17.633Z,31.17
2018-02-24T03:29:43.841Z,24.52
2018-02-24T03:32:10.076Z,29.67
2018-02-24T03:34:36.272Z,30.48
2018-02-24T03:37:02.482Z,25.10
2018-02-24T03:39:29.037Z,28.50
2018-02-24T03:41:56.079Z,24.37
2018-02-24T03:44:22.261Z,29.12
2018-02-24T03:46:48.474Z,25.73
2018-02-24T03:49:14.656Z,22.23
2018-02-24T03:51:40.838Z,25.80
2018-02-24T03:54:07.038Z,26.05
2018-02-24T03:56:33.233Z,27.83
2018-02-24T03:58:59.442Z,30.88
2018-02-24T04:01:25.665Z,29.63
2018-02-24T04:03:51.910Z,31.92
2018-02-24T04:06:18.110Z,27.65
2018-02-24T04:08:45.055Z,27.27
2018-02-24T04:11:11.254Z,23.73
2018-02-24T04:13:37.458Z,28.58
2018-02-24T04:16:03.661Z,38.72
2018-02-24T04:18:29.860Z,28.67
2018-02-24T04:20:56.105Z,26.85
2018-02-24T04:23:22.337Z,31.92
2018-02-24T04:25:48.602Z,34.20
2018-02-24T04:28:14.849Z,24.77
2018-02-24T04:30:41.065Z,28.38
2018-02-24T04:33:07.293Z,32.72
2018-02-24T04:35:33.517Z,28.48
2018-02-24T04:38:00.476Z,24.77
2018-02-24T04:40:26.691Z,34.58
2018-02-24T04:42:52.896Z,29.65
2018-02-24T04:45:19.136Z,32.50
2018-02-24T04:47:45.337Z,27.67
2018-02-24T04:50:11.546Z,30.25
2018-02-24T04:52:37.745Z,30.02
2018-02-24T04:55:03.931Z,34.53
2018-02-24T04:57:30.142Z,25.67
2018-02-24T04:59:56.337Z,27.67
2018-02-24T05:02:23.280Z,28.23
2018-02-24T05:04:49.535Z,26.23
2018-02-24T05:07:16.475Z,29.58
2018-02-24T05:09:42.684Z,26.77
2018-02-24T05:12:08.924Z,27.30
2018-02-24T05:14:35.152Z,26.70
2018-02-24T05:17:01.389Z,29.30
2018-02-24T05:19:27.624Z,25.23
2018-02-24T05:21:53.828Z,28.27
2018-02-24T05:24:20.098Z,26.08
2018-02-24T05:26:46.357Z,27.17
2018-02-24T05:29:16.876Z,32.67
2018-02-24T05:31:43.095Z,28.17
2018-02-24T05:34:10.044Z,30.58
2018-02-24T05:36:36.991Z,36.15
2018-02-24T05:39:03.948Z,29.42
2018-02-24T05:41:30.175Z,28.58
2018-02-24T05:43:56.401Z,28.73
2018-02-24T05:46:22.740Z,29.87
2018-02-24T05:48:48.982Z,30.67
2018-02-24T05:51:15.213Z,28.83
2018-02-24T05:53:41.475Z,26.37
2018-02-24T05:56:07.692Z,26.83
2018-02-24T05:58:33.944Z,26.10
2018-02-24T06:01:00.177Z,27.73
2018-02-24T06:03:26.392Z,28.20
2018-02-24T06:05:52.721Z,30.10
2018-02-24T06:08:19.101Z,29.02
2018-02-24T06:10:45.347Z,30.40
2018-02-24T06:13:11.902Z,30.83
2018-02-24T06:15:39.023Z,29.42
2018-02-24T06:18:05.969Z,24.70
2018-02-24T06:20:32.208Z,29.37
2018-02-24T06:22:58.438Z,24.67
2018-02-24T06:25:25.434Z,21.45
2018-02-24T06:27:51.649Z,31.12
2018-02-24T06:30:17.877Z,30.02
2018-02-24T06:32:44.085Z,24.83
2018-02-24T06:35:10.350Z,33.10
2018-02-24T06:37:36.601Z,25.23
2018-02-24T06:40:03.688Z,26.45
2018-02-24T06:42:29.915Z,29.67
2018-02-24T06:44:56.921Z,23.35
2018-02-24T06:47:23.130Z,28.10
2018-02-24T06:49:49.356Z,24.70
2018-02-24T06:52:15.585Z,33.65
2018-02-24T06:54:42.568Z,25.65
2018-02-24T06:57:09.611Z,28.50
2018-02-24T06:59:36.554Z,26.95
2018-02-24T07:02:02.871Z,30.48
2018-02-24T07:04:29.061Z,25.77
2018-02-24T07:06:56.022Z,26.60
2018-02-24T07:09:22.220Z,27.15
2018-02-24T07:11:49.273Z,30.17
2018-02-24T07:14:15.494Z,31.10
2018-02-24T07:16:41.722Z,27.30
2018-02-24T07:19:08.769Z,25.67
2018-02-24T07:21:35.098Z,26.92
2018-02-24T07:24:01.288Z,26.67
2018-02-24T07:26:27.496Z,27.83
2018-02-24T07:28:53.738Z,25.62
2018-02-24T07:31:20.681Z,26.98
2018-02-24T07:33:46.905Z,30.42
2018-02-24T07:36:12.940Z,28.70
2018-02-24T07:38:38.971Z,21.77
2018-02-24T07:41:05.027Z,22.23
2018-02-24T07:43:31.078Z,25.98
2018-02-24T07:45:57.122Z,21.60
2018-02-24T07:48:23.140Z,22.33
2018-02-24T07:50:49.214Z,19.60
2018-02-24T07:53:15.985Z,22.10
2018-02-24T07:55:42.751Z,22.20
2018-02-24T07:58:08.784Z,32.38
2018-02-24T08:00:35.609Z,23.85
2018-02-24T08:03:01.630Z,24.40
2018-02-24T08:05:27.646Z,23.02
2018-02-24T08:07:53.655Z,25.75
2018-02-24T08:10:19.694Z,19.87
2018-02-24T08:12:45.734Z,23.02
2018-02-24T08:15:11.768Z,23.20
2018-02-24T08:17:37.803Z,20.73
2018-02-24T08:20:03.873Z,19.35
2018-02-24T08:22:29.910Z,22.30
2018-02-24T08:24:56.696Z,23.17
2018-02-24T08:27:22.737Z,22.92
2018-02-24T08:29:48.752Z,24.37
2018-02-24T08:32:14.770Z,21.40
2018-02-24T08:34:40.788Z,21.20
2018-02-24T08:37:06.812Z,23.87
2018-02-24T08:39:32.857Z,24.20
2018-02-24T08:41:58.908Z,21.10
2018-02-24T08:44:24.925Z,20.45
2018-02-24T08:46:50.945Z,25.12
2018-02-24T08:49:17.032Z,19.92
2018-02-24T08:51:43.076Z,22.77
2018-02-24T08:54:09.211Z,21.85
2018-02-24T08:56:35.366Z,20.80
2018-02-24T08:59:01.489Z,21.92
2018-02-24T09:01:27.521Z,24.17
2018-02-24T09:03:53.547Z,17.30
2018-02-24T09:06:19.586Z,19.12
2018-02-24T09:08:45.608Z,19.75
2018-02-24T09:11:12.402Z,18.70
2018-02-24T09:13:39.165Z,19.02
2018-02-24T09:16:05.925Z,20.20
2018-02-24T09:18:32.686Z,20.20
2018-02-24T09:20:59.455Z,20.92
2018-02-24T09:23:25.469Z,17.85
2018-02-24T09:25:51.502Z,17.95
2018-02-24T09:28:18.248Z,22.40
2018-02-24T09:30:44.280Z,18.37
2018-02-24T09:33:11.055Z,16.55
2018-02-24T09:35:37.093Z,20.27
2018-02-24T09:38:03.230Z,16.10
2018-02-24T09:40:29.301Z,17.05
2018-02-24T09:42:55.307Z,16.42
2018-02-24T09:45:21.408Z,18.12
2018-02-24T09:47:48.176Z,15.05
2018-02-24T09:50:14.933Z,21.48
2018-02-24T09:52:41.781Z,13.62
2018-02-24T09:55:08.520Z,17.52
2018-02-24T09:57:34.533Z,16.67
2018-02-24T10:00:00.572Z,16.60
2018-02-24T10:02:26.673Z,17.10
2018-02-24T10:04:52.781Z,12.55
2018-02-24T10:07:19.000Z,15.55
2018-02-24T10:09:45.025Z,12.13
2018-02-24T10:12:11.890Z,11.65
2018-02-24T10:14:38.018Z,10.65
2018-02-24T10:17:04.095Z,10.23
2018-02-24T10:19:30.131Z,8.55
2018-02-24T10:21:56.894Z,8.88
2018-02-24T10:24:23.109Z,14.85
2018-02-24T10:26:49.984Z,8.00
2018-02-24T10:29:15.996Z,10.38
2018-02-24T10:31:42.765Z,8.55
2018-02-24T10:34:09.665Z,9.43
2018-02-24T10:36:35.681Z,10.93
2018-02-24T10:39:01.696Z,19.17
2018-02-24T10:41:28.461Z,9.38
2018-02-24T10:43:54.493Z,12.52
2018-02-24T10:46:20.569Z,11.68
2018-02-24T10:48:46.666Z,8.80
2018-02-24T10:51:13.396Z,9.73
2018-02-24T10:53:40.176Z,11.43
2018-02-24T10:56:06.201Z,8.68
2018-02-24T10:58:32.229Z,8.75
2018-02-24T11:00:59.013Z,7.80
2018-02-24T11:03:25.079Z,8.18
2018-02-24T11:05:51.179Z,9.93
2018-02-24T11:08:17.170Z,8.85
2018-02-24T11:10:43.420Z,7.85
2018-02-24T11:13:09.681Z,7.68
2018-02-24T11:15:35.883Z,11.55
2018-02-24T11:18:02.137Z,7.32
2018-02-24T11:20:28.358Z,8.40
2018-02-24T11:22:55.246Z,6.55
2018-02-24T11:25:21.572Z,11.82
2018-02-24T11:27:47.796Z,8.18
2018-02-24T11:30:14.070Z,6.60
2018-02-24T11:32:40.281Z,9.85
2018-02-24T11:35:06.548Z,7.68
2018-02-24T11:37:32.851Z,7.03
2018-02-24T11:39:59.128Z,8.35
2018-02-24T11:42:25.381Z,5.80
2018-02-24T11:44:52.360Z,7.47
2018-02-24T11:47:19.308Z,5.10
2018-02-24T11:49:46.323Z,8.02
2018-02-24T11:52:12.530Z,5.68
2018-02-24T11:54:39.012Z,6.03
2018-02-24T11:57:05.238Z,7.05
2018-02-24T11:59:31.449Z,6.12
2018-02-24T12:01:58.401Z,8.48
2018-02-24T12:04:25.395Z,7.10
2018-02-24T12:06:51.638Z,6.37
2018-02-24T12:09:18.104Z,7.18
2018-02-24T12:11:45.123Z,6.80
2018-02-24T12:14:11.365Z,7.93
2018-02-24T12:16:37.604Z,6.45
2018-02-24T12:19:03.800Z,8.00
2018-02-24T12:21:30.022Z,7.20
2018-02-24T12:23:56.231Z,8.05
2018-02-24T12:26:22.523Z,8.05
2018-02-24T12:28:48.700Z,6.72
2018-02-24T12:31:14.918Z,8.02
2018-02-24T12:33:41.873Z,6.12
2018-02-24T12:36:08.140Z,7.07
2018-02-24T12:38:34.369Z,6.05
2018-02-24T12:41:00.703Z,7.50
2018-02-24T12:43:26.981Z,5.50
2018-02-24T12:45:53.216Z,7.87
2018-02-24T12:48:19.454Z,5.70
2018-02-24T12:50:45.789Z,5.35
2018-02-24T12:53:12.053Z,5.12
2018-02-24T12:55:38.286Z,6.30
2018-02-24T12:58:04.524Z,4.75
2018-02-24T13:00:30.777Z,5.25
2018-02-24T13:02:56.967Z,5.65
2018-02-24T13:05:23.946Z,4.53
2018-02-24T13:07:50.231Z,4.60
2018-02-24T13:10:16.469Z,5.53
2018-02-24T13:12:42.675Z,4.65
2018-02-24T13:15:08.894Z,5.65
2018-02-24T13:17:35.086Z,5.20
2018-02-24T13:20:01.314Z,6.55
2018-02-24T13:22:27.518Z,4.97
2018-02-24T13:24:53.773Z,6.80
2018-02-24T13:27:19.798Z,6.05
2018-02-24T13:29:45.820Z,7.75
2018-02-24T13:32:11.886Z,5.85
2018-02-24T13:34:37.910Z,5.53
2018-02-24T13:37:03.942Z,6.12
2018-02-24T13:39:29.969Z,7.35
2018-02-24T13:41:55.993Z,6.35
2018-02-24T13:44:22.778Z,5.75
2018-02-24T13:46:48.866Z,4.87
2018-02-24T13:49:15.641Z,5.12
2018-02-24T13:51:41.668Z,4.97
2018-02-24T13:54:08.435Z,6.60
2018-02-24T13:56:34.469Z,6.85
2018-02-24T13:59:00.509Z,5.60
2018-02-24T14:01:26.523Z,5.30
2018-02-24T14:03:53.362Z,6.60
2018-02-24T14:06:19.399Z,5.65
2018-02-24T14:08:45.414Z,6.78
2018-02-24T14:11:11.527Z,6.18
2018-02-24T14:13:37.542Z,5.82
2018-02-24T14:16:03.578Z,8.65
2018-02-24T14:18:29.645Z,5.90
2018-02-24T14:20:55.720Z,7.78
2018-02-24T14:23:21.778Z,6.57
2018-02-24T14:25:47.834Z,11.38
2018-02-24T14:28:13.874Z,6.85
2018-02-24T14:30:39.919Z,6.65
2018-02-24T14:33:05.936Z,8.65
2018-02-24T14:35:31.961Z,7.65
2018-02-24T14:38:00.941Z,7.90
2018-02-24T14:40:27.033Z,6.07
2018-02-24T14:42:53.123Z,8.93
2018-02-24T14:45:19.158Z,7.90
2018-02-24T14:47:45.179Z,9.68
2018-02-24T14:50:11.742Z,8.75
2018-02-24T14:52:37.780Z,8.05
2018-02-24T14:55:06.944Z,7.50
2018-02-24T14:57:35.220Z,11.57
2018-02-24T15:00:01.256Z,9.10
2018-02-24T15:02:27.996Z,10.15
2018-02-24T15:04:54.808Z,7.97
2018-02-24T15:07:20.859Z,8.15
2018-02-24T15:09:46.885Z,8.82
2018-02-24T15:12:15.939Z,7.00
2018-02-24T15:14:42.781Z,8.45
2018-02-24T15:17:08.856Z,8.90
2018-02-24T15:19:35.612Z,8.70
2018-02-24T15:22:01.670Z,6.43
2018-02-24T15:24:27.692Z,7.75
2018-02-24T15:26:53.747Z,10.05
2018-02-24T15:29:19.908Z,11.43
2018-02-24T15:31:45.953Z,8.32
2018-02-24T15:34:12.331Z,7.75
2018-02-24T15:36:38.419Z,10.43
2018-02-24T15:39:04.554Z,9.77
2018-02-24T15:41:30.600Z,9.98
2018-02-24T15:43:56.802Z,9.93
2018-02-24T15:46:22.913Z,9.23
2018-02-24T15:48:48.940Z,9.52
2018-02-24T15:51:15.719Z,6.60
2018-02-24T15:53:42.164Z,7.00
2018-02-24T15:56:08.427Z,7.15
2018-02-24T15:58:34.504Z,6.45
2018-02-24T16:01:01.477Z,8.38
2018-02-24T16:03:27.491Z,8.45
2018-02-24T16:05:53.521Z,6.45
2018-02-24T16:08:19.578Z,6.03
2018-02-24T16:10:46.409Z,7.22
2018-02-24T16:13:12.488Z,7.68
2018-02-24T16:15:39.371Z,7.65
2018-02-24T16:18:05.413Z,5.82
2018-02-24T16:20:31.502Z,8.70
2018-02-24T16:22:57.620Z,6.00
2018-02-24T16:25:23.681Z,4.60
2018-02-24T16:27:50.517Z,6.80
2018-02-24T16:30:16.561Z,6.03
2018-02-24T16:32:42.635Z,5.45
2018-02-24T16:35:08.680Z,7.65
2018-02-24T16:37:34.700Z,6.40
2018-02-24T16:40:01.769Z,5.70
2018-02-24T16:42:27.857Z,4.07
2018-02-24T16:44:53.942Z,4.35
2018-02-24T16:47:20.020Z,6.95
2018-02-24T16:49:46.103Z,6.35
2018-02-24T16:52:12.145Z,5.90
2018-02-24T16:54:38.974Z,5.15
2018-02-24T16:57:04.985Z,5.25
2018-02-24T16:59:30.984Z,5.15
2018-02-24T17:01:57.065Z,4.65
2018-02-24T17:04:23.121Z,7.22
2018-02-24T17:06:49.138Z,5.25
2018-02-24T17:09:15.215Z,8.40
2018-02-24T17:11:41.274Z,4.85
2018-02-24T17:14:07.329Z,4.78
2018-02-24T17:16:33.364Z,5.57
2018-02-24T17:18:59.567Z,3.75
2018-02-24T17:21:25.817Z,5.18
2018-02-24T17:23:52.822Z,3.17
2018-02-24T17:26:19.017Z,2.97
2018-02-24T17:28:45.237Z,2.75
2018-02-24T17:31:11.441Z,3.42
2018-02-24T17:33:37.706Z,3.25
2018-02-24T17:36:03.928Z,4.28
2018-02-24T17:38:30.157Z,8.35
2018-02-24T17:40:57.690Z,3.95
2018-02-24T17:43:24.116Z,3.60
2018-02-24T17:45:50.342Z,3.78
2018-02-24T17:48:17.323Z,3.30
2018-02-24T17:50:43.614Z,3.35
2018-02-24T17:53:09.852Z,4.50
2018-02-24T17:55:36.049Z,2.45
2018-02-24T17:58:03.000Z,2.85
2018-02-24T18:00:29.960Z,2.72
2018-02-24T18:02:56.181Z,3.37
2018-02-24T18:05:22.518Z,1.95
2018-02-24T18:07:49.513Z,2.40
2018-02-24T18:10:16.494Z,2.92
2018-02-24T18:12:42.772Z,3.30
2018-02-24T18:15:08.997Z,4.28
2018-02-24T18:17:35.249Z,2.80
2018-02-24T18:20:01.755Z,4.25
2018-02-24T18:22:28.824Z,2.40
2018-02-24T18:24:55.033Z,2.83
2018-02-24T18:27:21.307Z,2.80
2018-02-24T18:29:47.593Z,2.80
2018-02-24T18:32:13.800Z,1.95
2018-02-24T18:34:40.733Z,2.25
2018-02-24T18:37:07.726Z,2.92
2018-02-24T18:39:36.057Z,2.42
2018-02-24T18:42:02.288Z,2.20
2018-02-24T18:44:28.513Z,2.60
2018-02-24T18:46:54.755Z,2.70
2018-02-24T18:49:21.034Z,4.70
2018-02-24T18:51:47.989Z,2.03
2018-02-24T18:54:14.209Z,3.30
2018-02-24T18:56:40.982Z,2.40
2018-02-24T18:59:07.021Z,2.70
2018-02-24T19:01:33.205Z,2.50
2018-02-24T19:03:59.225Z,3.45
2018-02-24T19:06:25.246Z,4.68
2018-02-24T19:08:51.261Z,4.05
2018-02-24T19:11:17.306Z,4.70
2018-02-24T19:13:43.705Z,4.57
2018-02-24T19:16:10.530Z,5.40
2018-02-24T19:18:36.561Z,4.68
2018-02-24T19:21:02.626Z,3.83
2018-02-24T19:23:29.684Z,2.92
2018-02-24T19:25:55.711Z,3.00
2018-02-24T19:28:21.745Z,2.58
2018-02-24T19:30:47.794Z,4.78
2018-02-24T19:33:14.126Z,3.10
2018-02-24T19:35:40.165Z,2.60
2018-02-24T19:38:06.208Z,3.00
2018-02-24T19:40:32.239Z,4.05
2018-02-24T19:42:58.277Z,2.85
2018-02-24T19:45:24.367Z,2.75
2018-02-24T19:47:50.424Z,2.35
2018-02-24T19:50:16.681Z,1.87
2018-02-24T19:52:42.830Z,2.20
2018-02-24T19:55:08.992Z,3.95
2018-02-24T19:57:35.838Z,2.00
2018-02-24T20:00:01.865Z,3.00
2018-02-24T20:02:27.915Z,2.30
2018-02-24T20:04:54.080Z,2.00
2018-02-24T20:07:20.840Z,3.15
2018-02-24T20:09:46.881Z,2.60
2018-02-24T20:12:12.975Z,2.50
2018-02-24T20:14:39.142Z,2.30
2018-02-24T20:17:05.972Z,2.65
2018-02-24T20:19:32.161Z,2.80
2018-02-24T20:21:58.216Z,2.35
2018-02-24T20:24:25.014Z,2.12
2018-02-24T20:26:51.864Z,3.62
2018-02-24T20:29:17.958Z,3.78
2018-02-24T20:31:44.007Z,2.20
2018-02-24T20:34:10.040Z,3.08
2018-02-24T20:36:36.192Z,2.20
2018-02-24T20:39:02.243Z,2.60
2018-02-24T20:41:28.997Z,2.62
2018-02-24T20:43:55.017Z,2.40
2018-02-24T20:46:21.058Z,2.85
2018-02-24T20:48:47.092Z,3.17
2018-02-24T20:51:13.128Z,3.40
2018-02-24T20:53:39.154Z,3.62
2018-02-24T20:56:05.193Z,3.50
2018-02-24T20:58:31.266Z,2.20
2018-02-24T21:00:58.082Z,3.33
2018-02-24T21:03:24.869Z,5.10
2018-02-24T21:05:51.645Z,2.40
2018-02-24T21:08:17.786Z,2.17
2018-02-24T21:10:43.850Z,2.95
2018-02-24T21:13:09.872Z,8.95
2018-02-24T21:15:35.908Z,2.30
2018-02-24T21:18:02.078Z,3.55
2018-02-24T21:20:28.949Z,3.30
2018-02-24T21:25:27.766Z,2.62
2018-02-24T21:27:55.073Z,2.90
2018-02-24T21:30:21.109Z,4.45
2018-02-24T21:32:47.142Z,3.20
2018-02-24T21:35:13.226Z,2.55
2018-02-24T21:37:39.262Z,3.53
2018-02-24T21:40:05.287Z,2.67
2018-02-24T21:42:31.317Z,3.28
2018-02-24T21:44:57.613Z,2.83
2018-02-24T21:47:24.452Z,7.05
2018-02-24T21:49:50.493Z,3.15
2018-02-24T21:52:16.522Z,3.17
2018-02-24T21:54:42.550Z,3.12
2018-02-24T21:57:08.626Z,3.37
2018-02-24T21:59:34.690Z,3.33
2018-02-24T22:02:00.713Z,2.55
2018-02-24T22:04:26.776Z,2.60
2018-02-24T22:06:53.576Z,2.83
2018-02-24T22:09:20.418Z,3.28
2018-02-24T22:11:46.499Z,4.60
2018-02-24T22:14:12.536Z,3.33
2018-02-24T22:16:38.572Z,2.83
2018-02-24T22:19:04.655Z,3.20
2018-02-24T22:21:30.689Z,3.35
2018-02-24T22:23:56.698Z,3.08
2018-02-24T22:26:22.847Z,3.42
2018-02-24T22:28:49.576Z,3.80
2018-02-24T22:31:15.629Z,3.03
2018-02-24T22:33:41.753Z,3.83
2018-02-24T22:36:07.789Z,4.15
2018-02-24T22:38:33.801Z,3.08
2018-02-24T22:40:59.829Z,4.55
2018-02-24T22:43:26.610Z,2.95
2018-02-24T22:45:52.903Z,8.13
2018-02-24T22:48:25.907Z,3.28
2018-02-24T22:50:51.929Z,3.30
2018-02-24T22:53:17.953Z,4.55
2018-02-24T22:55:44.027Z,5.12
2018-02-24T22:58:10.819Z,6.32
2018-02-24T23:00:36.859Z,3.80
2018-02-24T23:03:03.637Z,4.37
2018-02-24T23:05:29.644Z,3.20
2018-02-24T23:07:56.021Z,3.28
2018-02-24T23:10:22.069Z,5.47
2018-02-24T23:12:48.102Z,3.90
2018-02-24T23:15:14.148Z,3.58
2018-02-24T23:17:40.932Z,4.28
2018-02-24T23:20:06.962Z,5.05
2018-02-24T23:22:33.041Z,4.05
2018-02-24T23:24:59.077Z,3.15
2018-02-24T23:27:25.121Z,3.42
2018-02-24T23:29:51.325Z,6.32
2018-02-24T23:32:17.572Z,2.90
2018-02-24T23:34:44.546Z,4.00
2018-02-24T23:37:11.118Z,4.47
2018-02-24T23:39:37.157Z,3.47
2018-02-24T23:42:03.383Z,6.43
2018-02-24T23:44:29.590Z,5.75
2018-02-24T23:46:55.831Z,3.45
2018-02-24T23:49:22.077Z,4.35
2018-02-24T23:51:49.081Z,4.07
2018-02-24T23:54:15.277Z,3.95
2018-02-24T23:56:41.520Z,4.05
2018-02-24T23:59:07.750Z,3.90
